sensor_id;sensor_type;location;lat;lon;timestamp;temperature;humidity
72591;SHT31;60625;51.212;5.952;2024-03-02T00:02:55;9.46;67.49
72591;SHT31;60625;51.212;5.952;2024-03-02T00:07:56;9.46;67.61
72591;SHT31;60625;51.212;5.952;2024-03-02T00:12:58;9.48;67.57
72591;SHT31;60625;51.212;5.952;2024-03-02T00:17:59;9.52;67.53
72591;SHT31;60625;51.212;5.952;2024-03-02T00:23:02;9.55;67.39
72591;SHT31;60625;51.212;5.952;2024-03-02T00:28:05;9.58;67.31
72591;SHT31;60625;51.212;5.952;2024-03-02T00:33:07;9.64;67.11
72591;SHT31;60625;51.212;5.952;2024-03-02T00:38:08;9.69;67.08
72591;SHT31;60625;51.212;5.952;2024-03-02T00:48:59;9.76;66.84
72591;SHT31;60625;51.212;5.952;2024-03-02T00:54:03;9.81;66.79
72591;SHT31;60625;51.212;5.952;2024-03-02T00:59:06;9.82;66.89
72591;SHT31;60625;51.212;5.952;2024-03-02T01:04:06;9.86;66.49
72591;SHT31;60625;51.212;5.952;2024-03-02T01:09:07;9.90;66.33
72591;SHT31;60625;51.212;5.952;2024-03-02T01:14:07;9.94;66.44
72591;SHT31;60625;51.212;5.952;2024-03-02T01:19:08;9.94;67.61
72591;SHT31;60625;51.212;5.952;2024-03-02T01:24:09;9.75;71.11
72591;SHT31;60625;51.212;5.952;2024-03-02T01:29:10;9.49;72.68
72591;SHT31;60625;51.212;5.952;2024-03-02T01:34:11;9.28;73.70
72591;SHT31;60625;51.212;5.952;2024-03-02T01:39:12;9.10;74.19
72591;SHT31;60625;51.212;5.952;2024-03-02T01:44:13;8.95;75.06
72591;SHT31;60625;51.212;5.952;2024-03-02T01:49:13;8.83;75.86
72591;SHT31;60625;51.212;5.952;2024-03-02T01:54:14;8.72;76.24
72591;SHT31;60625;51.212;5.952;2024-03-02T01:59:14;8.66;76.11
72591;SHT31;60625;51.212;5.952;2024-03-02T02:04:15;8.62;76.38
72591;SHT31;60625;51.212;5.952;2024-03-02T02:09:16;8.57;76.60
72591;SHT31;60625;51.212;5.952;2024-03-02T02:14:18;8.55;76.71
72591;SHT31;60625;51.212;5.952;2024-03-02T02:19:19;8.52;76.83
72591;SHT31;60625;51.212;5.952;2024-03-02T02:24:19;8.51;76.68
72591;SHT31;60625;51.212;5.952;2024-03-02T02:29:20;8.52;76.08
72591;SHT31;60625;51.212;5.952;2024-03-02T02:34:21;8.52;75.71
72591;SHT31;60625;51.212;5.952;2024-03-02T02:39:21;8.50;75.34
72591;SHT31;60625;51.212;5.952;2024-03-02T02:44:25;8.47;74.93
72591;SHT31;60625;51.212;5.952;2024-03-02T02:49:25;8.45;74.86
72591;SHT31;60625;51.212;5.952;2024-03-02T02:54:26;8.42;74.88
72591;SHT31;60625;51.212;5.952;2024-03-02T02:59:27;8.38;75.13
72591;SHT31;60625;51.212;5.952;2024-03-02T03:04:27;8.33;75.18
72591;SHT31;60625;51.212;5.952;2024-03-02T03:09:28;8.28;75.19
72591;SHT31;60625;51.212;5.952;2024-03-02T03:14:28;8.23;75.13
72591;SHT31;60625;51.212;5.952;2024-03-02T03:19:29;8.21;74.98
72591;SHT31;60625;51.212;5.952;2024-03-02T03:24:29;8.19;75.00
72591;SHT31;60625;51.212;5.952;2024-03-02T03:29:30;8.18;75.06
72591;SHT31;60625;51.212;5.952;2024-03-02T03:34:34;8.16;75.16
72591;SHT31;60625;51.212;5.952;2024-03-02T03:39:34;8.14;75.20
72591;SHT31;60625;51.212;5.952;2024-03-02T03:44:38;8.12;75.30
72591;SHT31;60625;51.212;5.952;2024-03-02T03:49:40;8.10;75.42
72591;SHT31;60625;51.212;5.952;2024-03-02T03:54:41;8.09;75.54
72591;SHT31;60625;51.212;5.952;2024-03-02T03:59:43;8.09;75.65
72591;SHT31;60625;51.212;5.952;2024-03-02T04:04:44;8.09;75.85
72591;SHT31;60625;51.212;5.952;2024-03-02T04:09:45;8.08;76.01
72591;SHT31;60625;51.212;5.952;2024-03-02T04:14:45;8.09;76.08
72591;SHT31;60625;51.212;5.952;2024-03-02T04:19:46;8.10;76.24
72591;SHT31;60625;51.212;5.952;2024-03-02T04:24:47;8.09;76.39
72591;SHT31;60625;51.212;5.952;2024-03-02T04:29:48;8.10;76.42
72591;SHT31;60625;51.212;5.952;2024-03-02T04:34:48;8.10;76.64
72591;SHT31;60625;51.212;5.952;2024-03-02T04:39:49;8.09;76.94
72591;SHT31;60625;51.212;5.952;2024-03-02T04:44:49;8.07;77.29
72591;SHT31;60625;51.212;5.952;2024-03-02T04:49:50;8.06;77.61
72591;SHT31;60625;51.212;5.952;2024-03-02T04:54:50;8.05;77.63
72591;SHT31;60625;51.212;5.952;2024-03-02T05:00:10;8.05;77.55
72591;SHT31;60625;51.212;5.952;2024-03-02T05:05:12;8.05;77.53
72591;SHT31;60625;51.212;5.952;2024-03-02T05:10:15;8.05;77.24
72591;SHT31;60625;51.212;5.952;2024-03-02T05:15:15;8.06;76.82
72591;SHT31;60625;51.212;5.952;2024-03-02T05:20:16;8.05;76.60
72591;SHT31;60625;51.212;5.952;2024-03-02T05:25:17;8.05;76.74
72591;SHT31;60625;51.212;5.952;2024-03-02T05:30:18;8.06;77.03
72591;SHT31;60625;51.212;5.952;2024-03-02T05:35:18;8.04;77.28
72591;SHT31;60625;51.212;5.952;2024-03-02T05:40:19;8.04;77.31
72591;SHT31;60625;51.212;5.952;2024-03-02T05:45:19;8.03;77.21
72591;SHT31;60625;51.212;5.952;2024-03-02T05:50:20;8.03;77.29
72591;SHT31;60625;51.212;5.952;2024-03-02T05:55:20;8.02;77.18
72591;SHT31;60625;51.212;5.952;2024-03-02T06:00:21;8.01;76.82
72591;SHT31;60625;51.212;5.952;2024-03-02T06:05:22;8.00;76.57
72591;SHT31;60625;51.212;5.952;2024-03-02T06:10:22;7.98;76.32
72591;SHT31;60625;51.212;5.952;2024-03-02T06:15:23;7.97;76.19
72591;SHT31;60625;51.212;5.952;2024-03-02T06:20:23;7.97;76.07
72591;SHT31;60625;51.212;5.952;2024-03-02T06:25:24;7.96;75.96
72591;SHT31;60625;51.212;5.952;2024-03-02T06:30:25;7.93;75.90
72591;SHT31;60625;51.212;5.952;2024-03-02T06:35:25;7.89;75.81
72591;SHT31;60625;51.212;5.952;2024-03-02T06:40:26;7.84;75.62
72591;SHT31;60625;51.212;5.952;2024-03-02T06:45:27;7.80;75.52
72591;SHT31;60625;51.212;5.952;2024-03-02T06:50:27;7.76;75.44
72591;SHT31;60625;51.212;5.952;2024-03-02T06:55:28;7.73;75.21
72591;SHT31;60625;51.212;5.952;2024-03-02T07:00:29;7.72;74.93
72591;SHT31;60625;51.212;5.952;2024-03-02T07:05:30;7.73;74.57
72591;SHT31;60625;51.212;5.952;2024-03-02T07:10:31;7.75;74.29
72591;SHT31;60625;51.212;5.952;2024-03-02T07:15:31;7.78;74.17
72591;SHT31;60625;51.212;5.952;2024-03-02T07:20:51;7.79;74.07
72591;SHT31;60625;51.212;5.952;2024-03-02T07:25:51;7.85;73.93
72591;SHT31;60625;51.212;5.952;2024-03-02T07:31:02;7.89;74.01
72591;SHT31;60625;51.212;5.952;2024-03-02T07:36:07;7.95;74.10
72591;SHT31;60625;51.212;5.952;2024-03-02T07:41:08;8.02;74.03
72591;SHT31;60625;51.212;5.952;2024-03-02T07:46:09;8.11;73.98
72591;SHT31;60625;51.212;5.952;2024-03-02T07:51:11;8.22;73.90
72591;SHT31;60625;51.212;5.952;2024-03-02T07:56:14;8.35;73.83
72591;SHT31;60625;51.212;5.952;2024-03-02T08:01:21;8.48;73.39
72591;SHT31;60625;51.212;5.952;2024-03-02T08:06:22;8.60;72.95
72591;SHT31;60625;51.212;5.952;2024-03-02T08:11:23;8.73;72.79
72591;SHT31;60625;51.212;5.952;2024-03-02T08:16:24;8.83;72.46
72591;SHT31;60625;51.212;5.952;2024-03-02T08:21:25;8.93;72.00
72591;SHT31;60625;51.212;5.952;2024-03-02T08:26:26;9.02;71.95
72591;SHT31;60625;51.212;5.952;2024-03-02T08:31:30;9.14;71.63
72591;SHT31;60625;51.212;5.952;2024-03-02T08:36:31;9.27;71.08
72591;SHT31;60625;51.212;5.952;2024-03-02T08:41:31;9.37;70.89
72591;SHT31;60625;51.212;5.952;2024-03-02T08:46:32;9.48;70.32
72591;SHT31;60625;51.212;5.952;2024-03-02T08:51:32;9.58;70.18
72591;SHT31;60625;51.212;5.952;2024-03-02T08:56:33;9.70;69.54
72591;SHT31;60625;51.212;5.952;2024-03-02T09:01:34;9.87;69.21
72591;SHT31;60625;51.212;5.952;2024-03-02T09:06:35;10.03;68.56
72591;SHT31;60625;51.212;5.952;2024-03-02T09:11:35;10.19;67.67
72591;SHT31;60625;51.212;5.952;2024-03-02T09:16:36;10.31;67.41
72591;SHT31;60625;51.212;5.952;2024-03-02T09:21:37;10.45;66.93
72591;SHT31;60625;51.212;5.952;2024-03-02T09:26:38;10.60;66.21
72591;SHT31;60625;51.212;5.952;2024-03-02T09:31:40;10.71;65.82
72591;SHT31;60625;51.212;5.952;2024-03-02T09:36:41;10.86;64.88
72591;SHT31;60625;51.212;5.952;2024-03-02T09:41:42;11.01;63.69
72591;SHT31;60625;51.212;5.952;2024-03-02T09:46:43;11.13;62.88
72591;SHT31;60625;51.212;5.952;2024-03-02T09:51:46;11.25;62.72
72591;SHT31;60625;51.212;5.952;2024-03-02T09:56:49;11.39;62.40
72591;SHT31;60625;51.212;5.952;2024-03-02T10:01:55;11.59;61.73
72591;SHT31;60625;51.212;5.952;2024-03-02T10:12:15;12.00;60.85
72591;SHT31;60625;51.212;5.952;2024-03-02T10:17:17;12.13;58.95
72591;SHT31;60625;51.212;5.952;2024-03-02T10:22:18;12.24;59.06
72591;SHT31;60625;51.212;5.952;2024-03-02T10:27:26;12.44;58.49
72591;SHT31;60625;51.212;5.952;2024-03-02T10:32:29;12.57;58.56
72591;SHT31;60625;51.212;5.952;2024-03-02T10:37:30;12.76;58.72
72591;SHT31;60625;51.212;5.952;2024-03-02T10:42:31;12.92;57.90
72591;SHT31;60625;51.212;5.952;2024-03-02T10:47:32;12.96;57.47
72591;SHT31;60625;51.212;5.952;2024-03-02T10:52:35;13.05;57.15
72591;SHT31;60625;51.212;5.952;2024-03-02T10:57:41;13.19;56.81
72591;SHT31;60625;51.212;5.952;2024-03-02T11:02:57;13.31;56.87
72591;SHT31;60625;51.212;5.952;2024-03-02T11:08:06;13.45;56.11
72591;SHT31;60625;51.212;5.952;2024-03-02T11:13:13;13.59;54.97
72591;SHT31;60625;51.212;5.952;2024-03-02T11:18:14;13.80;55.29
72591;SHT31;60625;51.212;5.952;2024-03-02T11:23:15;14.05;54.60
72591;SHT31;60625;51.212;5.952;2024-03-02T11:28:16;14.16;53.72
72591;SHT31;60625;51.212;5.952;2024-03-02T11:33:36;14.36;53.15
72591;SHT31;60625;51.212;5.952;2024-03-02T11:38:37;14.59;52.01
72591;SHT31;60625;51.212;5.952;2024-03-02T11:43:38;14.73;51.05
72591;SHT31;60625;51.212;5.952;2024-03-02T11:48:39;14.73;50.61
72591;SHT31;60625;51.212;5.952;2024-03-02T11:53:41;14.59;50.83
72591;SHT31;60625;51.212;5.952;2024-03-02T11:58:43;14.53;51.81
72591;SHT31;60625;51.212;5.952;2024-03-02T12:03:44;14.67;51.54
72591;SHT31;60625;51.212;5.952;2024-03-02T12:08:46;14.70;51.56
72591;SHT31;60625;51.212;5.952;2024-03-02T12:13:52;14.71;51.21
72591;SHT31;60625;51.212;5.952;2024-03-02T12:18:57;14.75;51.03
72591;SHT31;60625;51.212;5.952;2024-03-02T12:23:57;14.87;50.95
72591;SHT31;60625;51.212;5.952;2024-03-02T12:28:58;15.09;49.97
72591;SHT31;60625;51.212;5.952;2024-03-02T12:33:59;15.19;50.22
72591;SHT31;60625;51.212;5.952;2024-03-02T12:38:59;15.12;50.03
72591;SHT31;60625;51.212;5.952;2024-03-02T12:44:00;15.07;52.32
72591;SHT31;60625;51.212;5.952;2024-03-02T12:49:11;13.08;88.14
